createdAt,value
2019-01-25T00:01:09.883Z,47.83
2019-01-25T00:03:40.863Z,44.00
2019-01-25T00:06:12.670Z,43.20
2019-01-25T00:08:43.667Z,40.30
2019-01-25T00:11:14.901Z,40.57
2019-01-25T00:13:46.055Z,38.13
2019-01-25T00:16:17.187Z,47.13
2019-01-25T00:18:48.397Z,40.90
2019-01-25T00:21:21.565Z,42.13
2019-01-25T00:23:52.702Z,48.90
2019-01-25T00:26:24.702Z,45.30
2019-01-25T00:28:55.641Z,46.23
2019-01-25T00:31:26.614Z,44.60
2019-01-25T00:33:57.525Z,47.00
2019-01-25T00:36:28.537Z,43.23
2019-01-25T00:38:59.484Z,42.97
2019-01-25T00:41:30.516Z,40.77
2019-01-25T00:44:01.441Z,49.00
2019-01-25T00:46:32.551Z,39.50
2019-01-25T00:49:03.572Z,45.53
2019-01-25T00:51:34.648Z,39.97
2019-01-25T00:54:06.410Z,45.60
2019-01-25T00:56:37.514Z,42.37
2019-01-25T00:59:08.476Z,49.90
2019-01-25T01:01:39.620Z,43.17
2019-01-25T01:04:10.516Z,40.97
2019-01-25T01:06:41.658Z,44.00
2019-01-25T01:09:13.448Z,46.40
2019-01-25T01:11:44.520Z,41.67
2019-01-25T01:14:15.444Z,42.90
2019-01-25T01:16:46.461Z,28.80
2019-01-25T01:19:17.414Z,45.60
2019-01-25T01:21:48.485Z,44.20
2019-01-25T01:24:19.363Z,39.70
2019-01-25T01:26:50.281Z,55.20
2019-01-25T01:29:21.227Z,45.17
2019-01-25T01:31:52.235Z,37.70
2019-01-25T01:34:23.111Z,44.03
2019-01-25T01:36:54.134Z,44.63
2019-01-25T01:39:25.195Z,40.07
2019-01-25T01:41:56.135Z,45.63
2019-01-25T01:44:27.023Z,41.87
2019-01-25T01:47:00.230Z,39.53
2019-01-25T01:49:31.293Z,37.03
2019-01-25T01:52:02.497Z,36.40
2019-01-25T01:54:33.573Z,42.00
2019-01-25T01:57:04.832Z,45.93
2019-01-25T01:59:36.951Z,39.83
2019-01-25T02:02:08.238Z,41.00
2019-01-25T02:04:39.119Z,39.03
2019-01-25T02:07:10.352Z,41.53
2019-01-25T02:09:41.345Z,42.80
2019-01-25T02:12:12.425Z,44.30
2019-01-25T02:14:43.395Z,44.90
2019-01-25T02:17:14.427Z,43.30
2019-01-25T02:19:45.509Z,42.00
2019-01-25T02:22:16.469Z,44.70
2019-01-25T02:24:47.473Z,47.60
2019-01-25T02:27:18.955Z,45.73
2019-01-25T02:29:49.903Z,41.77
2019-01-25T02:32:20.965Z,45.90
2019-01-25T02:34:51.882Z,44.93
2019-01-25T02:37:22.881Z,40.60
2019-01-25T02:39:53.871Z,46.80
2019-01-25T02:42:24.891Z,45.17
2019-01-25T02:44:55.763Z,40.83
2019-01-25T02:47:26.777Z,50.77
2019-01-25T02:49:57.851Z,44.77
2019-01-25T02:52:28.875Z,40.73
2019-01-25T02:54:59.726Z,49.67
2019-01-25T02:57:30.625Z,43.87
2019-01-25T03:00:01.579Z,47.90
2019-01-25T03:02:32.883Z,49.80
2019-01-25T03:05:04.195Z,45.97
2019-01-25T03:07:35.131Z,41.93
2019-01-25T03:10:09.623Z,40.87
2019-01-25T03:12:42.979Z,46.07
2019-01-25T03:15:17.551Z,44.13
2019-01-25T03:17:48.773Z,45.10
2019-01-25T03:20:21.608Z,46.37
2019-01-25T03:22:52.745Z,46.27
2019-01-25T03:25:26.750Z,48.10
2019-01-25T03:27:57.816Z,44.43
2019-01-25T03:30:28.954Z,47.13
2019-01-25T03:32:59.881Z,39.70
2019-01-25T03:35:44.444Z,41.13
2019-01-25T03:38:15.448Z,42.77
2019-01-25T03:40:55.005Z,42.73
2019-01-25T03:43:21.096Z,46.33
2019-01-25T03:45:52.368Z,47.87
2019-01-25T03:48:23.536Z,42.03
2019-01-25T03:50:54.686Z,39.70
2019-01-25T03:53:28.658Z,46.93
2019-01-25T03:55:59.831Z,43.30
2019-01-25T03:58:30.957Z,42.50
2019-01-25T04:01:01.970Z,47.63
2019-01-25T04:03:32.947Z,44.53
2019-01-25T04:06:04.396Z,47.83
2019-01-25T04:08:35.336Z,47.53
2019-01-25T04:11:18.790Z,46.80
2019-01-25T04:13:49.790Z,49.53
2019-01-25T04:16:21.098Z,47.40
2019-01-25T04:18:52.114Z,51.97
2019-01-25T04:21:23.034Z,46.60
2019-01-25T04:23:55.548Z,50.73
2019-01-25T04:26:26.832Z,47.00
2019-01-25T04:28:59.047Z,48.67
2019-01-25T04:31:42.252Z,45.17
2019-01-25T04:34:13.230Z,48.73
2019-01-25T04:36:44.166Z,48.37
2019-01-25T04:39:15.089Z,48.40
2019-01-25T04:41:46.160Z,45.03
2019-01-25T04:44:17.079Z,43.47
2019-01-25T04:46:47.958Z,46.30
2019-01-25T04:49:19.260Z,52.03
2019-01-25T04:51:50.515Z,48.27
2019-01-25T04:54:21.488Z,50.23
2019-01-25T04:56:52.502Z,49.10
2019-01-25T04:59:29.717Z,55.43
2019-01-25T05:02:01.828Z,45.50
2019-01-25T05:04:36.877Z,48.63
2019-01-25T05:07:08.131Z,56.30
2019-01-25T05:09:41.118Z,46.43
2019-01-25T05:12:12.098Z,44.27
2019-01-25T05:15:03.515Z,53.83
2019-01-25T05:17:37.437Z,50.43
2019-01-25T05:20:08.953Z,46.23
2019-01-25T05:22:39.923Z,48.27
2019-01-25T05:25:11.179Z,43.90
2019-01-25T05:27:42.097Z,53.60
2019-01-25T05:30:13.356Z,48.47
2019-01-25T05:32:44.338Z,54.90
2019-01-25T05:35:15.916Z,51.00
2019-01-25T05:37:46.932Z,54.03
2019-01-25T05:40:24.000Z,48.37
2019-01-25T05:42:55.033Z,53.50
2019-01-25T05:45:26.104Z,50.37
2019-01-25T05:47:57.029Z,46.37
2019-01-25T05:50:28.042Z,52.30
2019-01-25T05:52:59.121Z,51.50
2019-01-25T05:55:30.128Z,46.33
2019-01-25T05:58:02.609Z,52.20
2019-01-25T06:00:36.410Z,45.43
2019-01-25T06:03:13.054Z,56.63
2019-01-25T06:05:46.640Z,50.07
2019-01-25T06:08:33.703Z,45.87
2019-01-25T06:11:13.300Z,47.17
2019-01-25T06:13:47.204Z,50.63
2019-01-25T06:16:18.592Z,52.73
2019-01-25T06:18:51.186Z,50.40
2019-01-25T06:21:22.329Z,50.37
2019-01-25T06:23:55.671Z,49.77
2019-01-25T06:26:27.137Z,50.07
2019-01-25T06:28:58.062Z,46.30
2019-01-25T06:31:28.994Z,49.77
2019-01-25T06:33:59.906Z,50.90
2019-01-25T06:36:30.910Z,51.93
2019-01-25T06:39:01.989Z,48.57
2019-01-25T06:41:34.315Z,50.10
2019-01-25T06:44:06.035Z,52.67
2019-01-25T06:46:36.926Z,50.90
2019-01-25T06:49:07.975Z,46.83
2019-01-25T06:51:38.910Z,43.27
2019-01-25T06:54:09.846Z,63.63
2019-01-25T06:56:40.835Z,49.77
2019-01-25T06:59:15.316Z,49.57
2019-01-25T07:02:08.379Z,42.70
2019-01-25T07:04:39.403Z,48.10
2019-01-25T07:07:30.750Z,45.80
2019-01-25T07:10:01.726Z,63.13
2019-01-25T07:12:32.861Z,50.63
2019-01-25T07:15:05.504Z,49.70
2019-01-25T07:17:36.589Z,47.97
2019-01-25T07:20:11.121Z,49.87
2019-01-25T07:22:42.148Z,43.87
2019-01-25T07:25:13.913Z,53.93
2019-01-25T07:27:45.052Z,53.00
2019-01-25T07:30:16.453Z,48.47
2019-01-25T07:32:47.528Z,64.43
2019-01-25T07:35:18.620Z,57.53
2019-01-25T07:37:50.649Z,50.47
2019-01-25T07:40:21.699Z,52.77
2019-01-25T07:42:52.614Z,55.63
2019-01-25T07:45:23.701Z,52.30
2019-01-25T07:47:54.741Z,46.23
2019-01-25T07:50:35.796Z,56.07
2019-01-25T07:53:11.995Z,63.90
2019-01-25T07:55:42.982Z,51.80
2019-01-25T07:58:14.020Z,46.00
2019-01-25T08:00:44.958Z,60.30
2019-01-25T08:03:15.991Z,50.37
2019-01-25T08:05:47.133Z,45.40
2019-01-25T08:08:18.592Z,50.23
2019-01-25T08:10:49.543Z,58.70
2019-01-25T08:13:20.564Z,55.00
2019-01-25T08:15:51.506Z,53.30
2019-01-25T08:18:24.334Z,49.70
2019-01-25T08:20:55.202Z,49.90
2019-01-25T08:23:26.373Z,58.77
2019-01-25T08:25:57.707Z,59.47
2019-01-25T08:28:28.696Z,56.33
2019-01-25T08:30:59.875Z,59.60
2019-01-25T08:33:30.836Z,59.90
2019-01-25T08:36:01.773Z,55.37
2019-01-25T08:38:32.961Z,59.93
2019-01-25T08:41:07.320Z,55.53
2019-01-25T08:43:38.572Z,55.97
2019-01-25T08:46:09.710Z,54.10
2019-01-25T08:48:40.936Z,66.30
2019-01-25T08:51:12.156Z,51.87
2019-01-25T08:53:43.408Z,61.10
2019-01-25T08:56:14.541Z,60.20
2019-01-25T08:58:45.661Z,55.40
2019-01-25T09:01:28.736Z,51.63
2019-01-25T09:03:59.746Z,62.30
2019-01-25T09:06:30.973Z,61.00
2019-01-25T09:09:02.021Z,57.27
2019-01-25T09:11:34.248Z,65.63
2019-01-25T09:14:05.638Z,60.53
2019-01-25T09:16:37.104Z,59.73
2019-01-25T09:19:09.224Z,65.03
2019-01-25T09:21:40.374Z,51.23
2019-01-25T09:24:11.411Z,49.33
2019-01-25T09:26:42.280Z,55.53
2019-01-25T09:29:13.405Z,56.90
2019-01-25T09:31:44.404Z,53.93
2019-01-25T09:34:15.600Z,45.00
2019-01-25T09:36:49.719Z,45.13
2019-01-25T09:39:20.838Z,40.90
2019-01-25T09:41:51.898Z,49.57
2019-01-25T09:44:23.895Z,39.87
2019-01-25T09:46:54.934Z,43.97
2019-01-25T09:49:25.996Z,41.33
2019-01-25T09:51:56.908Z,42.93
2019-01-25T09:54:27.869Z,63.13
2019-01-25T09:56:58.896Z,40.60
2019-01-25T09:59:29.813Z,40.80
2019-01-25T10:02:00.758Z,39.63
2019-01-25T10:04:34.607Z,39.83
2019-01-25T10:07:05.759Z,42.83
2019-01-25T10:09:36.718Z,44.77
2019-01-25T10:12:07.806Z,38.93
2019-01-25T10:14:38.745Z,37.90
2019-01-25T10:17:09.612Z,44.07
2019-01-25T10:19:40.592Z,41.50
2019-01-25T10:22:11.588Z,45.83
2019-01-25T10:24:42.528Z,41.27
2019-01-25T10:27:13.549Z,54.57
2019-01-25T10:29:44.660Z,44.23
2019-01-25T10:32:15.610Z,44.80
2019-01-25T10:34:46.690Z,37.30
2019-01-25T10:37:17.567Z,42.93
2019-01-25T10:39:48.489Z,39.90
2019-01-25T10:42:19.544Z,38.17
2019-01-25T10:44:50.503Z,36.40
2019-01-25T10:47:21.420Z,33.67
2019-01-25T10:49:52.300Z,53.00
2019-01-25T10:52:23.170Z,40.27
2019-01-25T10:54:54.147Z,39.60
2019-01-25T10:57:25.164Z,37.07
2019-01-25T10:59:58.028Z,36.87
2019-01-25T11:02:29.394Z,45.63
2019-01-25T11:05:00.677Z,37.03
2019-01-25T11:07:31.931Z,43.03
2019-01-25T11:10:03.161Z,33.80
2019-01-25T11:12:35.462Z,50.80
2019-01-25T11:15:11.738Z,32.20
2019-01-25T11:17:42.802Z,40.53
2019-01-25T11:20:17.466Z,35.50
2019-01-25T11:22:48.816Z,42.50
2019-01-25T11:25:30.392Z,38.97
2019-01-25T11:28:01.578Z,44.03
2019-01-25T11:30:32.925Z,43.37
2019-01-25T11:33:05.653Z,50.77
2019-01-25T11:35:36.894Z,51.13
2019-01-25T11:38:07.902Z,61.10
2019-01-25T11:40:42.382Z,48.93
2019-01-25T11:43:13.390Z,61.33
2019-01-25T11:45:44.925Z,49.23
2019-01-25T11:48:16.427Z,58.27
2019-01-25T11:50:47.458Z,51.73
2019-01-25T11:53:18.419Z,54.60
2019-01-25T11:55:49.572Z,49.10
2019-01-25T11:58:20.531Z,46.20
2019-01-25T12:00:51.757Z,51.00
2019-01-25T12:03:22.743Z,54.60
2019-01-25T12:05:53.833Z,49.03
2019-01-25T12:08:25.329Z,52.93
2019-01-25T12:10:56.299Z,52.13
2019-01-25T12:13:27.316Z,54.27
2019-01-25T12:15:58.400Z,68.83
2019-01-25T12:18:29.605Z,65.57
2019-01-25T12:21:02.463Z,55.87
2019-01-25T12:23:33.871Z,53.07
2019-01-25T12:26:04.897Z,54.70
2019-01-25T12:28:35.898Z,54.80
2019-01-25T12:31:06.951Z,60.80
2019-01-25T12:33:37.853Z,55.00
2019-01-25T12:36:09.237Z,59.20
2019-01-25T12:38:40.033Z,52.23
2019-01-25T12:41:11.064Z,53.87
2019-01-25T12:43:42.382Z,50.83
2019-01-25T12:46:13.371Z,45.80
2019-01-25T12:48:44.806Z,45.80
2019-01-25T12:51:28.191Z,47.90
2019-01-25T12:53:59.121Z,52.60
2019-01-25T12:56:30.209Z,53.57
2019-01-25T12:59:01.197Z,55.07
2019-01-25T13:01:35.019Z,52.10
2019-01-25T13:04:05.116Z,59.73
2019-01-25T13:06:36.069Z,52.77
2019-01-25T13:09:10.817Z,68.10
2019-01-25T13:11:41.946Z,63.00
2019-01-25T13:14:12.835Z,47.77
2019-01-25T13:16:47.983Z,60.60
2019-01-25T13:19:23.855Z,59.03
2019-01-25T13:21:55.257Z,62.57
2019-01-25T13:24:26.455Z,58.70
2019-01-25T13:26:57.806Z,64.77
2019-01-25T13:29:28.847Z,59.57
2019-01-25T13:31:59.821Z,76.83
2019-01-25T13:34:31.294Z,77.33
2019-01-25T13:37:02.725Z,66.37
2019-01-25T13:39:33.907Z,88.10
2019-01-25T13:42:05.017Z,75.23
2019-01-25T13:44:36.439Z,76.53
2019-01-25T13:47:07.574Z,64.57
2019-01-25T13:49:38.545Z,71.10
2019-01-25T13:52:09.697Z,64.77
2019-01-25T13:54:40.750Z,70.20
2019-01-25T13:57:11.797Z,74.37
2019-01-25T13:59:42.689Z,77.80
2019-01-25T14:02:13.765Z,57.73
2019-01-25T14:04:44.657Z,62.67
2019-01-25T14:07:20.961Z,77.23
2019-01-25T14:09:49.566Z,67.63
2019-01-25T14:12:20.499Z,67.50
2019-01-25T14:14:52.617Z,68.03
2019-01-25T14:17:24.655Z,72.27
2019-01-25T14:19:55.731Z,68.17
2019-01-25T14:22:29.796Z,68.83
2019-01-25T14:25:00.884Z,79.20
2019-01-25T14:27:31.983Z,68.03
2019-01-25T14:30:03.317Z,72.37
2019-01-25T14:32:34.518Z,74.17
2019-01-25T14:35:07.499Z,81.03
2019-01-25T14:37:38.859Z,87.77
2019-01-25T14:40:10.034Z,71.67
2019-01-25T14:42:41.285Z,73.63
2019-01-25T14:45:25.593Z,85.33
2019-01-25T14:47:56.669Z,86.50
2019-01-25T14:50:28.958Z,77.57
2019-01-25T14:53:00.562Z,78.07
2019-01-25T14:55:31.672Z,83.73
2019-01-25T14:58:04.082Z,97.30
2019-01-25T15:00:35.611Z,90.70
2019-01-25T15:03:07.528Z,91.40
2019-01-25T15:05:38.680Z,84.20
2019-01-25T15:08:12.816Z,88.13
2019-01-25T15:10:43.958Z,105.73
2019-01-25T15:13:15.031Z,99.60
2019-01-25T15:15:46.144Z,99.57
2019-01-25T15:18:20.474Z,94.13
2019-01-25T15:20:52.598Z,89.03
2019-01-25T15:23:23.829Z,102.80
2019-01-25T15:25:54.880Z,90.13
2019-01-25T15:28:25.871Z,90.27
2019-01-25T15:30:56.912Z,94.83
2019-01-25T15:33:28.012Z,95.83
2019-01-25T15:35:59.033Z,94.47
2019-01-25T15:38:30.104Z,102.40
2019-01-25T15:41:01.275Z,90.43
2019-01-25T15:43:32.302Z,93.23
2019-01-25T15:46:03.467Z,89.90
2019-01-25T15:48:34.748Z,102.97
2019-01-25T15:51:06.005Z,100.73
2019-01-25T15:53:36.935Z,94.43
2019-01-25T15:56:08.037Z,80.27
2019-01-25T15:58:39.132Z,101.67
2019-01-25T16:01:10.196Z,100.17
2019-01-25T16:03:41.676Z,91.50
2019-01-25T16:06:12.574Z,91.53
2019-01-25T16:08:43.500Z,85.57
2019-01-25T16:11:14.527Z,91.03
2019-01-25T16:13:45.600Z,96.20
2019-01-25T16:16:18.554Z,84.80
2019-01-25T16:18:49.672Z,82.87
2019-01-25T16:21:25.790Z,69.67
2019-01-25T16:23:58.609Z,86.60
2019-01-25T16:26:29.806Z,72.20
2019-01-25T16:29:00.798Z,78.73
2019-01-25T16:31:31.837Z,66.87
2019-01-25T16:34:03.160Z,70.90
2019-01-25T16:36:34.102Z,72.00
2019-01-25T16:39:08.834Z,64.27
2019-01-25T16:41:40.452Z,71.93
2019-01-25T16:44:11.624Z,66.53
2019-01-25T16:46:43.611Z,67.97
2019-01-25T16:49:16.415Z,79.03
2019-01-25T16:51:47.277Z,66.10
2019-01-25T16:54:18.234Z,72.20
2019-01-25T16:56:50.540Z,67.57
2019-01-25T16:59:21.996Z,74.13
2019-01-25T17:01:53.405Z,80.50
2019-01-25T17:04:25.054Z,62.00
2019-01-25T17:06:56.385Z,63.90
2019-01-25T17:09:28.243Z,69.53
2019-01-25T17:11:59.605Z,69.30
2019-01-25T17:14:33.543Z,77.93
2019-01-25T17:17:04.744Z,71.93
2019-01-25T17:19:35.854Z,73.47
2019-01-25T17:22:09.412Z,72.67
2019-01-25T17:24:40.515Z,68.27
2019-01-25T17:27:11.618Z,61.67
2019-01-25T17:29:42.594Z,73.43
2019-01-25T17:32:13.655Z,60.83
2019-01-25T17:34:44.792Z,63.93
2019-01-25T17:37:17.099Z,72.90
2019-01-25T17:39:48.223Z,67.07
2019-01-25T17:42:19.260Z,68.63
2019-01-25T17:44:50.234Z,62.00
2019-01-25T17:47:21.214Z,69.67
2019-01-25T17:49:52.247Z,63.23
2019-01-25T17:52:24.304Z,83.73
2019-01-25T17:54:55.234Z,69.73
2019-01-25T17:57:26.413Z,70.60
2019-01-25T17:59:58.410Z,59.07
2019-01-25T18:02:29.437Z,70.57
2019-01-25T18:05:00.385Z,66.30
2019-01-25T18:07:31.345Z,57.13
2019-01-25T18:10:02.361Z,69.10
2019-01-25T18:12:35.636Z,62.40
2019-01-25T18:15:08.713Z,65.50
2019-01-25T18:17:39.814Z,64.03
2019-01-25T18:20:14.274Z,57.83
2019-01-25T18:22:45.641Z,71.33
2019-01-25T18:25:24.281Z,60.47
2019-01-25T18:28:00.409Z,60.07
2019-01-25T18:30:47.573Z,64.57
2019-01-25T18:33:18.828Z,64.47
2019-01-25T18:35:49.917Z,63.77
2019-01-25T18:38:20.945Z,63.03
2019-01-25T18:40:51.956Z,61.73
2019-01-25T18:43:22.928Z,61.10
2019-01-25T18:45:53.953Z,68.30
2019-01-25T18:48:24.968Z,66.77
2019-01-25T18:50:55.942Z,59.57
2019-01-25T18:53:26.921Z,70.20
2019-01-25T18:55:58.008Z,71.50
2019-01-25T18:58:29.036Z,67.47
2019-01-25T19:01:00.080Z,56.40
2019-01-25T19:03:31.063Z,62.20
2019-01-25T19:06:02.211Z,65.37
2019-01-25T19:08:35.346Z,57.80
2019-01-25T19:11:06.468Z,63.07
2019-01-25T19:13:37.442Z,68.27
2019-01-25T19:16:12.601Z,61.97
2019-01-25T19:18:43.668Z,65.37
2019-01-25T19:21:14.845Z,58.37
2019-01-25T19:23:45.885Z,61.73
2019-01-25T19:26:16.950Z,71.90
2019-01-25T19:28:48.276Z,66.00
2019-01-25T19:31:32.879Z,68.97
2019-01-25T19:34:04.038Z,64.23
2019-01-25T19:36:39.508Z,66.77
2019-01-25T19:39:18.469Z,70.63
2019-01-25T19:41:52.774Z,67.43
2019-01-25T19:44:24.865Z,68.47
2019-01-25T19:46:56.278Z,63.00
2019-01-25T19:49:27.635Z,73.67
2019-01-25T19:51:59.127Z,62.40
2019-01-25T19:54:32.938Z,74.87
2019-01-25T19:57:04.293Z,68.03
2019-01-25T19:59:36.535Z,62.67
2019-01-25T20:02:08.481Z,67.30
2019-01-25T20:04:39.627Z,67.00
2019-01-25T20:07:11.524Z,66.97
2019-01-25T20:09:42.476Z,69.50
2019-01-25T20:12:13.645Z,60.97
2019-01-25T20:14:45.164Z,77.17
2019-01-25T20:17:16.355Z,74.00
2019-01-25T20:19:47.250Z,63.13
2019-01-25T20:22:18.428Z,68.20
2019-01-25T20:24:49.826Z,69.83
2019-01-25T20:27:21.087Z,77.77
2019-01-25T20:29:52.216Z,79.50
2019-01-25T20:32:24.337Z,77.07
2019-01-25T20:34:55.604Z,76.00
2019-01-25T20:37:26.657Z,81.43
2019-01-25T20:39:57.721Z,78.03
2019-01-25T20:42:28.844Z,73.17
2019-01-25T20:45:01.116Z,72.13
2019-01-25T20:47:33.345Z,80.70
2019-01-25T20:50:08.359Z,80.07
2019-01-25T20:52:42.488Z,88.00
2019-01-25T20:55:17.071Z,87.27
2019-01-25T20:57:48.340Z,102.00
2019-01-25T21:00:23.613Z,76.60
2019-01-25T21:02:55.033Z,81.10
2019-01-25T21:05:26.169Z,83.87
2019-01-25T21:07:57.406Z,90.97
2019-01-25T21:10:28.450Z,99.03
2019-01-25T21:12:59.444Z,86.30
2019-01-25T21:15:35.328Z,77.53
2019-01-25T21:18:09.133Z,94.97
2019-01-25T21:20:46.748Z,83.70
2019-01-25T21:23:17.947Z,86.13
2019-01-25T21:25:49.480Z,86.67
2019-01-25T21:28:21.323Z,95.77
2019-01-25T21:30:53.542Z,91.50
2019-01-25T21:33:24.582Z,101.27
2019-01-25T21:35:56.243Z,82.43
2019-01-25T21:38:27.280Z,82.00
2019-01-25T21:40:58.421Z,86.93
2019-01-25T21:43:29.749Z,91.03
2019-01-25T21:46:01.018Z,84.57
2019-01-25T21:48:33.272Z,89.20
2019-01-25T21:51:04.793Z,81.70
2019-01-25T21:53:35.927Z,89.27
2019-01-25T21:56:07.141Z,91.27
2019-01-25T21:58:38.226Z,81.93
2019-01-25T22:01:09.462Z,85.27
2019-01-25T22:03:40.504Z,101.30
2019-01-25T22:06:12.264Z,103.13
2019-01-25T22:08:44.092Z,83.63
2019-01-25T22:11:15.472Z,80.83
2019-01-25T22:13:52.754Z,92.27
2019-01-25T22:16:21.759Z,94.50
2019-01-25T22:18:52.866Z,94.20
2019-01-25T22:21:24.731Z,93.87
2019-01-25T22:23:55.803Z,98.67
2019-01-25T22:26:26.953Z,88.70
2019-01-25T22:28:58.114Z,89.97
2019-01-25T22:31:29.681Z,79.80
2019-01-25T22:34:00.694Z,87.60
2019-01-25T22:36:31.605Z,89.20
2019-01-25T22:39:03.099Z,80.83
2019-01-25T22:41:35.843Z,101.83
2019-01-25T22:44:06.906Z,95.70
2019-01-25T22:46:37.812Z,84.80
2019-01-25T22:49:08.902Z,97.30
2019-01-25T22:51:39.884Z,81.77
2019-01-25T22:54:11.051Z,83.90
2019-01-25T22:56:42.079Z,86.67
2019-01-25T22:59:13.135Z,78.63
2019-01-25T23:01:44.558Z,87.50
2019-01-25T23:04:45.270Z,84.13
2019-01-25T23:07:21.080Z,80.00
2019-01-25T23:10:01.680Z,93.10
2019-01-25T23:12:33.243Z,84.87
2019-01-25T23:15:04.592Z,83.23
2019-01-25T23:17:35.809Z,87.03
2019-01-25T23:22:43.139Z,86.00
2019-01-25T23:25:14.794Z,85.00
2019-01-25T23:27:46.088Z,87.80
2019-01-25T23:30:18.947Z,85.93
2019-01-25T23:32:49.847Z,89.10
2019-01-25T23:35:20.972Z,88.63
2019-01-25T23:37:51.882Z,78.37
2019-01-25T23:40:23.097Z,81.10
2019-01-25T23:42:54.208Z,79.30
2019-01-25T23:45:25.363Z,83.43
2019-01-25T23:47:56.400Z,86.67
2019-01-25T23:50:30.911Z,88.70
2019-01-25T23:53:02.166Z,92.93
2019-01-25T23:55:33.879Z,83.67
2019-01-25T23:58:05.226Z,88.53
